createdAt,value
2022-11-12T00:01:23.601Z,12.20
2022-11-12T00:03:52.477Z,12.20
2022-11-12T00:06:19.853Z,12.20
2022-11-12T00:08:47.343Z,12.10
2022-11-12T00:11:14.855Z,12.10
2022-11-12T00:16:28.184Z,12.10
2022-11-12T00:18:55.751Z,12.10
2022-11-12T00:21:23.086Z,12.20
2022-11-12T00:23:50.620Z,12.10
2022-11-12T00:26:18.412Z,12.00
2022-11-12T00:28:45.989Z,12.00
2022-11-12T00:31:16.994Z,12.00
2022-11-12T00:33:44.470Z,12.00
2022-11-12T00:36:11.967Z,12.10
2022-11-12T00:38:40.049Z,12.10
2022-11-12T00:41:07.637Z,12.00
2022-11-12T00:43:35.165Z,12.10
2022-11-12T00:46:02.963Z,12.10
2022-11-12T00:48:30.415Z,12.00
2022-11-12T00:51:06.658Z,12.00
2022-11-12T00:53:34.316Z,11.90
2022-11-12T00:56:06.623Z,12.00
2022-11-12T00:58:36.201Z,12.00
2022-11-12T01:01:16.715Z,12.00
2022-11-12T01:03:44.584Z,12.00
2022-11-12T01:06:16.018Z,11.90
2022-11-12T01:08:44.483Z,12.00
2022-11-12T01:11:13.904Z,11.90
2022-11-12T01:13:44.506Z,12.00
2022-11-12T01:16:20.157Z,11.90
2022-11-12T01:18:48.632Z,11.90
2022-11-12T01:21:16.189Z,12.00
2022-11-12T01:23:44.016Z,12.00
2022-11-12T01:26:16.889Z,12.00
2022-11-12T01:28:44.904Z,12.00
2022-11-12T01:31:13.115Z,12.00
2022-11-12T01:33:41.740Z,12.00
2022-11-12T01:38:52.472Z,12.10
2022-11-12T01:41:24.081Z,12.10
2022-11-12T01:44:27.849Z,12.10
2022-11-12T01:47:23.742Z,12.10
2022-11-12T01:50:02.309Z,12.40
2022-11-12T01:52:39.492Z,12.20
2022-11-12T01:55:17.235Z,12.20
2022-11-12T01:57:53.615Z,12.20
2022-11-12T02:00:21.170Z,12.20
2022-11-12T02:02:54.425Z,12.20
2022-11-12T02:05:23.256Z,12.30
2022-11-12T02:07:52.533Z,12.30
2022-11-12T02:10:23.372Z,12.30
2022-11-12T02:13:12.735Z,12.30
2022-11-12T02:15:41.898Z,12.40
2022-11-12T02:18:09.523Z,12.40
2022-11-12T02:23:14.372Z,12.40
2022-11-12T02:25:41.742Z,12.40
2022-11-12T02:28:12.892Z,12.50
2022-11-12T02:33:47.421Z,12.40
2022-11-12T02:38:50.998Z,12.40
2022-11-12T02:41:19.006Z,12.40
2022-11-12T02:43:46.644Z,12.30
2022-11-12T02:46:14.675Z,12.40
2022-11-12T02:48:42.155Z,12.40
2022-11-12T02:51:09.498Z,12.30
2022-11-12T02:53:37.282Z,12.40
2022-11-12T03:17:42.581Z,12.50
2022-11-12T03:20:16.396Z,12.50
2022-11-12T03:22:57.695Z,12.50
2022-11-12T03:34:01.583Z,12.50
2022-11-12T03:36:31.614Z,12.50
2022-11-12T03:39:02.480Z,12.50
2022-11-12T03:41:33.834Z,12.60
2022-11-12T03:44:04.208Z,12.60
2022-11-12T03:49:20.667Z,12.60
2022-11-12T03:51:52.250Z,12.60
2022-11-12T03:57:17.479Z,12.60
2022-11-12T04:29:51.509Z,12.80
2022-11-12T04:35:05.411Z,12.80
2022-11-12T04:37:55.645Z,12.80
2022-11-12T04:40:54.925Z,12.80
2022-11-12T04:46:28.797Z,12.90
2022-11-12T04:52:02.194Z,12.90
2022-11-12T04:54:35.738Z,12.90
2022-11-12T04:57:05.522Z,12.90
2022-11-12T04:59:42.019Z,12.90
2022-11-12T05:02:12.580Z,12.90
2022-11-12T05:04:41.709Z,12.90
2022-11-12T05:07:10.913Z,13.00
2022-11-12T05:09:39.228Z,13.00
2022-11-12T05:12:06.981Z,13.00
2022-11-12T05:14:34.504Z,13.00
2022-11-12T05:17:03.795Z,13.00
2022-11-12T05:19:32.036Z,13.00
2022-11-12T05:22:07.497Z,13.00
2022-11-12T05:24:43.178Z,13.00
2022-11-12T05:27:35.024Z,13.00
2022-11-12T05:30:04.983Z,13.10
2022-11-12T05:32:34.092Z,13.10
2022-11-12T05:35:14.586Z,13.10
2022-11-12T05:37:47.646Z,13.00
2022-11-12T05:40:23.074Z,13.10
2022-11-12T05:45:59.187Z,13.20
2022-11-12T05:48:54.758Z,13.10
2022-11-12T06:04:42.335Z,13.20
2022-11-12T06:07:09.882Z,13.20
2022-11-12T06:09:37.531Z,13.20
2022-11-12T06:12:06.887Z,13.20
2022-11-12T06:14:35.894Z,13.20
2022-11-12T06:17:13.675Z,13.30
2022-11-12T06:19:41.156Z,13.30
2022-11-12T06:22:08.611Z,13.30
2022-11-12T06:24:36.233Z,13.30
2022-11-12T06:27:03.621Z,13.30
2022-11-12T06:29:30.997Z,13.40
2022-11-12T06:31:58.324Z,13.40
2022-11-12T06:34:25.801Z,13.40
2022-11-12T06:36:53.156Z,13.40
2022-11-12T06:39:21.767Z,13.40
2022-11-12T06:41:49.255Z,13.40
2022-11-12T06:44:21.951Z,13.40
2022-11-12T06:46:50.531Z,13.40
2022-11-12T06:49:17.994Z,13.40
2022-11-12T06:51:45.514Z,13.40
2022-11-12T06:54:13.284Z,13.50
2022-11-12T06:56:41.157Z,13.50
2022-11-12T06:59:08.603Z,13.50
2022-11-12T07:01:37.439Z,13.50
2022-11-12T07:04:05.215Z,13.60
2022-11-12T07:06:34.026Z,13.50
2022-11-12T07:09:01.719Z,13.60
2022-11-12T07:11:29.241Z,13.80
2022-11-12T07:13:57.051Z,13.60
2022-11-12T07:16:24.624Z,13.70
2022-11-12T07:18:52.109Z,13.70
2022-11-12T07:21:20.899Z,13.70
2022-11-12T07:23:48.772Z,13.60
2022-11-12T07:26:23.474Z,13.70
2022-11-12T07:28:52.381Z,13.80
2022-11-12T07:31:20.863Z,13.80
2022-11-12T07:33:53.560Z,13.80
2022-11-12T07:47:12.252Z,13.80
2022-11-12T08:41:27.355Z,14.30
2022-11-12T10:59:53.615Z,13.20
2022-11-12T11:05:59.541Z,13.30
2022-11-12T11:08:54.565Z,13.60
2022-11-12T11:15:28.160Z,13.50
2022-11-12T11:28:58.247Z,13.30
2022-11-12T11:32:44.863Z,13.50
2022-11-12T12:50:11.060Z,13.30
2022-11-12T12:53:05.833Z,13.20
2022-11-12T12:55:49.451Z,13.30
2022-11-12T12:58:28.072Z,13.20
2022-11-12T13:01:08.214Z,13.30
2022-11-12T13:03:45.138Z,13.20
2022-11-12T13:06:23.492Z,13.30
2022-11-12T13:09:45.285Z,13.00
2022-11-12T13:19:15.227Z,13.10
2022-11-12T13:21:54.986Z,12.80
2022-11-12T13:48:14.220Z,12.70
2022-11-12T14:50:52.698Z,12.20
2022-11-12T14:53:31.357Z,12.30
2022-11-12T14:56:01.813Z,12.20
2022-11-12T14:58:29.812Z,12.10
2022-11-12T15:00:57.434Z,12.00
2022-11-12T15:03:31.113Z,12.00
2022-11-12T15:06:03.077Z,12.00
2022-11-12T15:08:36.091Z,12.00
2022-11-12T15:11:44.189Z,11.90
2022-11-12T15:14:24.119Z,11.90
2022-11-12T15:19:24.477Z,11.80
2022-11-12T15:21:55.877Z,11.80
2022-11-12T15:24:35.312Z,12.60
2022-11-12T15:29:47.621Z,11.70
2022-11-12T15:32:14.921Z,11.70
2022-11-12T15:34:42.352Z,11.70
2022-11-12T15:45:44.967Z,11.60
2022-11-12T15:48:12.802Z,11.60
2022-11-12T15:50:40.427Z,11.50
2022-11-12T15:53:07.959Z,11.50
2022-11-12T15:55:37.265Z,12.10
2022-11-12T15:58:09.540Z,11.60
2022-11-12T16:00:47.012Z,11.50
2022-11-12T16:03:16.901Z,11.50
2022-11-12T16:05:44.677Z,11.50
2022-11-12T16:08:13.278Z,11.50
2022-11-12T16:10:43.298Z,11.40
2022-11-12T16:13:27.963Z,11.40
2022-11-12T16:15:55.588Z,11.40
2022-11-12T16:18:23.183Z,11.40
2022-11-12T16:20:50.761Z,11.30
2022-11-12T16:23:18.271Z,11.30
2022-11-12T16:28:19.954Z,11.40
2022-11-12T16:30:52.151Z,11.30
2022-11-12T16:33:19.521Z,11.30
2022-11-12T16:35:47.039Z,11.30
2022-11-12T16:38:37.113Z,11.30
2022-11-12T16:41:12.226Z,11.70
2022-11-12T16:43:40.659Z,11.30
2022-11-12T16:46:30.105Z,11.30
2022-11-12T16:55:31.902Z,11.20
2022-11-12T16:57:59.630Z,11.10
2022-11-12T17:00:28.335Z,11.10
2022-11-12T17:02:55.840Z,11.10
2022-11-12T17:05:25.477Z,11.10
2022-11-12T17:15:49.171Z,11.10
2022-11-12T17:18:16.775Z,11.10
2022-11-12T17:20:48.420Z,11.10
2022-11-12T17:23:18.822Z,11.80
2022-11-12T17:25:46.608Z,11.10
2022-11-12T17:28:14.393Z,11.00
2022-11-12T17:33:28.084Z,11.00
2022-11-12T17:36:01.696Z,11.10
2022-11-12T17:55:04.430Z,10.90
2022-11-12T17:57:31.807Z,10.80
2022-11-12T18:02:35.937Z,11.00
2022-11-12T18:10:53.511Z,10.80
2022-11-12T18:28:43.223Z,10.70
2022-11-12T18:31:13.273Z,10.60
2022-11-12T18:33:40.700Z,10.70
2022-11-12T18:36:12.261Z,10.70
2022-11-12T18:41:46.182Z,10.60
2022-11-12T18:44:14.613Z,10.60
2022-11-12T18:56:30.320Z,10.50
2022-11-12T18:58:57.893Z,10.40
2022-11-12T19:01:25.819Z,10.40
2022-11-12T19:03:55.243Z,10.40
2022-11-12T19:06:24.475Z,10.40
2022-11-12T19:28:17.014Z,10.40
2022-11-12T19:39:12.863Z,10.20
2022-11-12T19:53:06.055Z,10.10
2022-11-12T19:55:37.224Z,10.10
2022-11-12T19:58:08.637Z,10.00
2022-11-12T20:00:37.219Z,9.80
2022-11-12T20:03:04.983Z,10.00
2022-11-12T21:03:18.018Z,9.90
2022-11-12T21:05:45.718Z,9.90
2022-11-12T21:08:14.098Z,9.90
2022-11-12T21:10:41.480Z,9.80
2022-11-12T21:13:09.017Z,9.90
2022-11-12T21:15:36.463Z,9.80
2022-11-12T21:18:13.016Z,9.80
2022-11-12T21:29:40.776Z,9.80
2022-11-12T21:34:48.539Z,9.80
2022-11-12T21:37:16.003Z,10.40
2022-11-12T21:39:43.751Z,9.80
2022-11-12T21:42:11.236Z,9.70
2022-11-12T21:44:38.907Z,9.80
2022-11-12T21:47:06.279Z,9.80
2022-11-12T21:49:33.719Z,9.70
2022-11-12T21:52:01.143Z,9.80
2022-11-12T21:54:28.582Z,9.70
2022-11-12T21:56:56.916Z,9.60
2022-11-12T22:05:36.826Z,9.40
2022-11-12T22:08:04.762Z,9.60
2022-11-12T22:10:32.277Z,9.60
2022-11-12T22:13:25.397Z,9.50
2022-11-12T22:15:47.293Z,9.50
2022-11-12T22:18:14.594Z,9.50
2022-11-12T22:20:42.049Z,9.50
2022-11-12T22:23:09.410Z,9.50
2022-11-12T22:25:36.772Z,9.50
2022-11-12T22:28:12.486Z,9.50
2022-11-12T22:30:46.368Z,9.50
2022-11-12T22:36:07.628Z,9.40
2022-11-12T22:44:43.601Z,9.40
2022-11-12T22:49:51.203Z,9.30
2022-11-12T22:52:23.998Z,9.30
2022-11-12T22:57:51.248Z,9.30
2022-11-12T23:00:39.437Z,9.30
2022-11-12T23:06:03.185Z,9.30
2022-11-12T23:17:17.937Z,9.30
2022-11-12T23:19:59.637Z,9.30
2022-11-12T23:22:32.680Z,9.20
2022-11-12T23:25:15.465Z,9.40
2022-11-12T23:27:51.174Z,9.20
2022-11-12T23:30:22.190Z,9.20
2022-11-12T23:32:53.317Z,9.10
2022-11-12T23:35:24.553Z,9.90
2022-11-12T23:37:57.929Z,9.10
2022-11-12T23:40:31.201Z,9.20
2022-11-12T23:48:16.789Z,9.10
2022-11-12T23:53:30.437Z,9.10
2022-11-12T23:56:25.964Z,9.10
2022-11-12T23:58:57.184Z,9.00
